sensor_id;sensor_type;location;lat;lon;timestamp;P1;durP1;ratioP1;P2;durP2;ratioP2
68140;SDS011;54941;52.220;104.306;2023-05-09T00:00:32;5.13;;;3.05;;
68140;SDS011;54941;52.220;104.306;2023-05-09T00:02:59;5.20;;;2.60;;
68140;SDS011;54941;52.220;104.306;2023-05-09T00:05:25;4.07;;;2.60;;
68140;SDS011;54941;52.220;104.306;2023-05-09T00:07:52;3.92;;;2.60;;
68140;SDS011;54941;52.220;104.306;2023-05-09T00:10:19;4.40;;;2.50;;
68140;SDS011;54941;52.220;104.306;2023-05-09T00:12:46;6.50;;;2.88;;
68140;SDS011;54941;52.220;104.306;2023-05-09T00:15:12;4.70;;;2.78;;
68140;SDS011;54941;52.220;104.306;2023-05-09T00:17:38;4.53;;;2.15;;
68140;SDS011;54941;52.220;104.306;2023-05-09T00:20:06;5.28;;;2.90;;
68140;SDS011;54941;52.220;104.306;2023-05-09T00:22:32;5.28;;;2.95;;
68140;SDS011;54941;52.220;104.306;2023-05-09T00:24:59;5.32;;;2.92;;
68140;SDS011;54941;52.220;104.306;2023-05-09T00:27:27;4.13;;;2.55;;
68140;SDS011;54941;52.220;104.306;2023-05-09T00:29:53;4.07;;;2.80;;
68140;SDS011;54941;52.220;104.306;2023-05-09T00:32:19;4.72;;;2.58;;
68140;SDS011;54941;52.220;104.306;2023-05-09T00:34:46;5.07;;;3.20;;
68140;SDS011;54941;52.220;104.306;2023-05-09T00:37:12;5.03;;;2.85;;
68140;SDS011;54941;52.220;104.306;2023-05-09T00:39:38;5.40;;;2.97;;
68140;SDS011;54941;52.220;104.306;2023-05-09T00:42:04;6.47;;;3.20;;
68140;SDS011;54941;52.220;104.306;2023-05-09T00:44:32;4.35;;;2.90;;
68140;SDS011;54941;52.220;104.306;2023-05-09T00:46:58;5.15;;;3.10;;
68140;SDS011;54941;52.220;104.306;2023-05-09T00:49:25;4.88;;;3.10;;
68140;SDS011;54941;52.220;104.306;2023-05-09T00:51:51;4.60;;;2.97;;
68140;SDS011;54941;52.220;104.306;2023-05-09T00:54:18;5.32;;;3.38;;
68140;SDS011;54941;52.220;104.306;2023-05-09T00:56:45;5.50;;;3.08;;
68140;SDS011;54941;52.220;104.306;2023-05-09T00:59:11;4.78;;;3.30;;
68140;SDS011;54941;52.220;104.306;2023-05-09T01:01:39;7.22;;;3.28;;
68140;SDS011;54941;52.220;104.306;2023-05-09T01:04:06;5.03;;;3.33;;
68140;SDS011;54941;52.220;104.306;2023-05-09T01:06:35;6.35;;;3.30;;
68140;SDS011;54941;52.220;104.306;2023-05-09T01:09:07;5.30;;;3.22;;
68140;SDS011;54941;52.220;104.306;2023-05-09T01:11:44;4.38;;;3.00;;
68140;SDS011;54941;52.220;104.306;2023-05-09T01:14:19;4.13;;;2.75;;
68140;SDS011;54941;52.220;104.306;2023-05-09T01:16:54;6.05;;;3.47;;
68140;SDS011;54941;52.220;104.306;2023-05-09T01:19:38;6.75;;;3.45;;
68140;SDS011;54941;52.220;104.306;2023-05-09T01:22:16;5.30;;;3.30;;
68140;SDS011;54941;52.220;104.306;2023-05-09T01:24:51;5.50;;;3.58;;
68140;SDS011;54941;52.220;104.306;2023-05-09T01:27:38;6.38;;;3.83;;
68140;SDS011;54941;52.220;104.306;2023-05-09T01:30:13;4.55;;;3.10;;
68140;SDS011;54941;52.220;104.306;2023-05-09T01:32:41;6.30;;;3.42;;
68140;SDS011;54941;52.220;104.306;2023-05-09T01:35:11;7.55;;;3.80;;
68140;SDS011;54941;52.220;104.306;2023-05-09T01:37:39;5.97;;;3.58;;
68140;SDS011;54941;52.220;104.306;2023-05-09T01:40:09;5.43;;;3.53;;
68140;SDS011;54941;52.220;104.306;2023-05-09T01:42:40;5.32;;;3.50;;
68140;SDS011;54941;52.220;104.306;2023-05-09T01:45:09;5.32;;;3.80;;
68140;SDS011;54941;52.220;104.306;2023-05-09T01:47:39;6.38;;;3.85;;
68140;SDS011;54941;52.220;104.306;2023-05-09T01:50:07;5.53;;;3.92;;
68140;SDS011;54941;52.220;104.306;2023-05-09T01:52:35;6.10;;;3.80;;
68140;SDS011;54941;52.220;104.306;2023-05-09T01:55:03;5.38;;;3.70;;
68140;SDS011;54941;52.220;104.306;2023-05-09T01:57:31;5.28;;;3.72;;
68140;SDS011;54941;52.220;104.306;2023-05-09T01:59:58;6.38;;;3.70;;
68140;SDS011;54941;52.220;104.306;2023-05-09T02:02:25;8.00;;;4.00;;
68140;SDS011;54941;52.220;104.306;2023-05-09T02:04:54;6.05;;;3.85;;
68140;SDS011;54941;52.220;104.306;2023-05-09T02:07:22;5.07;;;3.33;;
68140;SDS011;54941;52.220;104.306;2023-05-09T02:09:49;8.45;;;3.50;;
68140;SDS011;54941;52.220;104.306;2023-05-09T02:12:17;9.05;;;5.75;;
68140;SDS011;54941;52.220;104.306;2023-05-09T02:14:44;6.60;;;3.65;;
68140;SDS011;54941;52.220;104.306;2023-05-09T02:17:10;5.40;;;3.60;;
68140;SDS011;54941;52.220;104.306;2023-05-09T02:19:37;5.53;;;3.83;;
68140;SDS011;54941;52.220;104.306;2023-05-09T02:22:05;6.70;;;3.65;;
68140;SDS011;54941;52.220;104.306;2023-05-09T02:24:32;7.38;;;3.60;;
68140;SDS011;54941;52.220;104.306;2023-05-09T02:26:58;5.10;;;3.38;;
68140;SDS011;54941;52.220;104.306;2023-05-09T02:29:25;5.35;;;3.30;;
68140;SDS011;54941;52.220;104.306;2023-05-09T02:31:58;4.57;;;3.40;;
68140;SDS011;54941;52.220;104.306;2023-05-09T02:34:27;6.35;;;3.47;;
68140;SDS011;54941;52.220;104.306;2023-05-09T02:36:53;4.95;;;3.65;;
68140;SDS011;54941;52.220;104.306;2023-05-09T02:39:22;5.38;;;3.30;;
68140;SDS011;54941;52.220;104.306;2023-05-09T02:41:48;6.25;;;3.83;;
68140;SDS011;54941;52.220;104.306;2023-05-09T02:44:14;6.90;;;3.78;;
68140;SDS011;54941;52.220;104.306;2023-05-09T02:46:41;5.60;;;3.95;;
68140;SDS011;54941;52.220;104.306;2023-05-09T02:49:07;7.57;;;4.35;;
68140;SDS011;54941;52.220;104.306;2023-05-09T02:51:33;7.60;;;4.95;;
68140;SDS011;54941;52.220;104.306;2023-05-09T02:53:59;8.40;;;4.90;;
68140;SDS011;54941;52.220;104.306;2023-05-09T02:56:27;6.88;;;3.60;;
68140;SDS011;54941;52.220;104.306;2023-05-09T02:58:53;7.45;;;5.13;;
68140;SDS011;54941;52.220;104.306;2023-05-09T03:01:20;7.47;;;4.90;;
68140;SDS011;54941;52.220;104.306;2023-05-09T03:03:46;10.20;;;6.43;;
68140;SDS011;54941;52.220;104.306;2023-05-09T03:06:12;8.93;;;5.57;;
68140;SDS011;54941;52.220;104.306;2023-05-09T03:08:38;16.33;;;9.48;;
68140;SDS011;54941;52.220;104.306;2023-05-09T03:11:05;9.10;;;5.38;;
68140;SDS011;54941;52.220;104.306;2023-05-09T03:13:32;8.90;;;5.10;;
68140;SDS011;54941;52.220;104.306;2023-05-09T03:15:59;7.35;;;4.90;;
68140;SDS011;54941;52.220;104.306;2023-05-09T03:18:25;10.23;;;6.70;;
68140;SDS011;54941;52.220;104.306;2023-05-09T03:20:51;8.65;;;5.15;;
68140;SDS011;54941;52.220;104.306;2023-05-09T03:23:18;10.63;;;5.75;;
68140;SDS011;54941;52.220;104.306;2023-05-09T03:25:44;11.80;;;6.80;;
68140;SDS011;54941;52.220;104.306;2023-05-09T03:28:10;8.98;;;5.20;;
68140;SDS011;54941;52.220;104.306;2023-05-09T03:30:38;7.32;;;4.78;;
68140;SDS011;54941;52.220;104.306;2023-05-09T03:33:04;7.25;;;4.57;;
68140;SDS011;54941;52.220;104.306;2023-05-09T03:35:30;9.23;;;4.80;;
68140;SDS011;54941;52.220;104.306;2023-05-09T03:37:57;8.82;;;5.13;;
68140;SDS011;54941;52.220;104.306;2023-05-09T03:40:23;10.80;;;5.05;;
68140;SDS011;54941;52.220;104.306;2023-05-09T03:42:50;8.23;;;5.10;;
68140;SDS011;54941;52.220;104.306;2023-05-09T03:45:16;8.07;;;5.18;;
68140;SDS011;54941;52.220;104.306;2023-05-09T03:47:44;8.00;;;4.82;;
68140;SDS011;54941;52.220;104.306;2023-05-09T03:50:10;7.45;;;5.45;;
68140;SDS011;54941;52.220;104.306;2023-05-09T03:52:36;9.27;;;4.95;;
68140;SDS011;54941;52.220;104.306;2023-05-09T03:55:02;7.95;;;5.00;;
68140;SDS011;54941;52.220;104.306;2023-05-09T03:57:31;8.77;;;5.43;;
68140;SDS011;54941;52.220;104.306;2023-05-09T03:59:59;11.02;;;6.80;;
68140;SDS011;54941;52.220;104.306;2023-05-09T04:02:25;9.63;;;6.40;;
68140;SDS011;54941;52.220;104.306;2023-05-09T04:04:53;11.50;;;6.35;;
68140;SDS011;54941;52.220;104.306;2023-05-09T04:07:19;10.73;;;7.30;;
68140;SDS011;54941;52.220;104.306;2023-05-09T04:09:46;10.45;;;6.72;;
68140;SDS011;54941;52.220;104.306;2023-05-09T04:12:12;13.20;;;6.88;;
68140;SDS011;54941;52.220;104.306;2023-05-09T04:14:38;9.13;;;6.57;;
68140;SDS011;54941;52.220;104.306;2023-05-09T04:17:05;10.13;;;6.18;;
68140;SDS011;54941;52.220;104.306;2023-05-09T04:19:31;8.75;;;6.40;;
68140;SDS011;54941;52.220;104.306;2023-05-09T04:21:59;16.73;;;10.77;;
68140;SDS011;54941;52.220;104.306;2023-05-09T04:24:25;9.68;;;6.55;;
68140;SDS011;54941;52.220;104.306;2023-05-09T04:26:52;13.02;;;6.13;;
68140;SDS011;54941;52.220;104.306;2023-05-09T04:29:18;9.50;;;6.80;;
68140;SDS011;54941;52.220;104.306;2023-05-09T04:31:44;9.45;;;6.40;;
68140;SDS011;54941;52.220;104.306;2023-05-09T04:34:11;11.43;;;6.93;;
68140;SDS011;54941;52.220;104.306;2023-05-09T04:36:37;9.95;;;6.45;;
68140;SDS011;54941;52.220;104.306;2023-05-09T04:39:05;9.70;;;6.43;;
68140;SDS011;54941;52.220;104.306;2023-05-09T04:41:31;10.55;;;5.70;;
68140;SDS011;54941;52.220;104.306;2023-05-09T04:43:57;9.02;;;6.10;;
68140;SDS011;54941;52.220;104.306;2023-05-09T04:46:24;10.20;;;6.35;;
68140;SDS011;54941;52.220;104.306;2023-05-09T04:48:50;7.85;;;5.40;;
68140;SDS011;54941;52.220;104.306;2023-05-09T04:51:16;9.85;;;6.13;;
68140;SDS011;54941;52.220;104.306;2023-05-09T04:53:43;11.30;;;6.38;;
68140;SDS011;54941;52.220;104.306;2023-05-09T04:56:10;8.45;;;6.03;;
68140;SDS011;54941;52.220;104.306;2023-05-09T04:58:37;9.80;;;6.05;;
68140;SDS011;54941;52.220;104.306;2023-05-09T05:01:03;9.40;;;6.00;;
68140;SDS011;54941;52.220;104.306;2023-05-09T05:03:30;10.65;;;6.50;;
68140;SDS011;54941;52.220;104.306;2023-05-09T05:05:56;8.75;;;5.93;;
68140;SDS011;54941;52.220;104.306;2023-05-09T05:08:23;8.68;;;6.00;;
68140;SDS011;54941;52.220;104.306;2023-05-09T05:10:49;9.10;;;6.15;;
68140;SDS011;54941;52.220;104.306;2023-05-09T05:13:17;8.48;;;6.22;;
68140;SDS011;54941;52.220;104.306;2023-05-09T05:15:43;11.52;;;6.15;;
68140;SDS011;54941;52.220;104.306;2023-05-09T05:18:09;11.57;;;5.80;;
68140;SDS011;54941;52.220;104.306;2023-05-09T05:20:36;9.98;;;6.20;;
68140;SDS011;54941;52.220;104.306;2023-05-09T05:23:05;9.45;;;5.70;;
68140;SDS011;54941;52.220;104.306;2023-05-09T05:25:31;9.32;;;5.57;;
68140;SDS011;54941;52.220;104.306;2023-05-09T05:27:58;11.68;;;6.10;;
68140;SDS011;54941;52.220;104.306;2023-05-09T05:30:25;7.75;;;5.90;;
68140;SDS011;54941;52.220;104.306;2023-05-09T05:32:52;8.05;;;5.90;;
68140;SDS011;54941;52.220;104.306;2023-05-09T05:35:18;10.80;;;6.15;;
68140;SDS011;54941;52.220;104.306;2023-05-09T05:37:45;8.45;;;5.78;;
68140;SDS011;54941;52.220;104.306;2023-05-09T05:40:11;7.68;;;5.47;;
68140;SDS011;54941;52.220;104.306;2023-05-09T05:42:37;10.20;;;5.93;;
68140;SDS011;54941;52.220;104.306;2023-05-09T05:45:04;9.57;;;6.10;;
68140;SDS011;54941;52.220;104.306;2023-05-09T05:47:34;9.75;;;6.05;;
68140;SDS011;54941;52.220;104.306;2023-05-09T05:52:29;9.10;;;5.90;;
68140;SDS011;54941;52.220;104.306;2023-05-09T05:54:56;9.23;;;5.47;;
68140;SDS011;54941;52.220;104.306;2023-05-09T05:57:22;7.95;;;5.82;;
68140;SDS011;54941;52.220;104.306;2023-05-09T05:59:48;9.57;;;6.10;;
68140;SDS011;54941;52.220;104.306;2023-05-09T06:02:15;8.88;;;6.07;;
68140;SDS011;54941;52.220;104.306;2023-05-09T06:04:44;9.10;;;5.68;;
68140;SDS011;54941;52.220;104.306;2023-05-09T06:07:10;9.00;;;5.65;;
68140;SDS011;54941;52.220;104.306;2023-05-09T06:09:37;8.65;;;5.88;;
68140;SDS011;54941;52.220;104.306;2023-05-09T06:12:04;8.02;;;6.22;;
68140;SDS011;54941;52.220;104.306;2023-05-09T06:14:31;10.52;;;7.15;;
68140;SDS011;54941;52.220;104.306;2023-05-09T06:16:58;11.50;;;7.03;;
68140;SDS011;54941;52.220;104.306;2023-05-09T06:19:24;10.00;;;6.45;;
68140;SDS011;54941;52.220;104.306;2023-05-09T06:21:52;7.22;;;5.80;;
68140;SDS011;54941;52.220;104.306;2023-05-09T06:24:18;8.18;;;5.68;;
68140;SDS011;54941;52.220;104.306;2023-05-09T06:26:45;11.07;;;7.40;;
68140;SDS011;54941;52.220;104.306;2023-05-09T06:29:11;9.90;;;5.82;;
68140;SDS011;54941;52.220;104.306;2023-05-09T06:31:37;11.60;;;7.38;;
68140;SDS011;54941;52.220;104.306;2023-05-09T06:34:04;9.32;;;5.88;;
68140;SDS011;54941;52.220;104.306;2023-05-09T06:36:30;7.82;;;5.60;;
68140;SDS011;54941;52.220;104.306;2023-05-09T06:38:59;11.02;;;7.05;;
68140;SDS011;54941;52.220;104.306;2023-05-09T06:41:25;9.60;;;5.95;;
68140;SDS011;54941;52.220;104.306;2023-05-09T06:43:52;10.50;;;5.93;;
68140;SDS011;54941;52.220;104.306;2023-05-09T06:46:18;8.70;;;5.82;;
68140;SDS011;54941;52.220;104.306;2023-05-09T06:48:44;8.25;;;5.65;;
68140;SDS011;54941;52.220;104.306;2023-05-09T06:51:11;8.93;;;6.28;;
68140;SDS011;54941;52.220;104.306;2023-05-09T06:53:37;10.13;;;5.85;;
68140;SDS011;54941;52.220;104.306;2023-05-09T06:56:05;8.43;;;5.68;;
68140;SDS011;54941;52.220;104.306;2023-05-09T06:58:31;9.52;;;5.90;;
68140;SDS011;54941;52.220;104.306;2023-05-09T07:00:58;11.75;;;5.90;;
68140;SDS011;54941;52.220;104.306;2023-05-09T07:03:24;14.07;;;7.80;;
68140;SDS011;54941;52.220;104.306;2023-05-09T07:05:50;11.57;;;6.57;;
68140;SDS011;54941;52.220;104.306;2023-05-09T07:08:17;10.52;;;6.60;;
68140;SDS011;54941;52.220;104.306;2023-05-09T07:10:43;7.93;;;5.25;;
68140;SDS011;54941;52.220;104.306;2023-05-09T07:13:11;8.35;;;5.68;;
68140;SDS011;54941;52.220;104.306;2023-05-09T07:15:37;9.15;;;5.60;;
68140;SDS011;54941;52.220;104.306;2023-05-09T07:18:04;7.40;;;5.43;;
68140;SDS011;54941;52.220;104.306;2023-05-09T07:20:30;6.97;;;5.50;;
68140;SDS011;54941;52.220;104.306;2023-05-09T07:22:56;7.78;;;5.22;;
68140;SDS011;54941;52.220;104.306;2023-05-09T07:25:23;9.90;;;5.55;;
68140;SDS011;54941;52.220;104.306;2023-05-09T07:27:49;8.90;;;5.63;;
68140;SDS011;54941;52.220;104.306;2023-05-09T07:30:17;8.25;;;5.53;;
68140;SDS011;54941;52.220;104.306;2023-05-09T07:32:43;7.60;;;5.20;;
68140;SDS011;54941;52.220;104.306;2023-05-09T07:35:10;13.57;;;7.85;;
68140;SDS011;54941;52.220;104.306;2023-05-09T07:37:36;8.20;;;5.85;;
68140;SDS011;54941;52.220;104.306;2023-05-09T07:40:02;6.93;;;5.22;;
68140;SDS011;54941;52.220;104.306;2023-05-09T07:42:31;8.27;;;5.65;;
68140;SDS011;54941;52.220;104.306;2023-05-09T07:44:57;7.50;;;5.15;;
68140;SDS011;54941;52.220;104.306;2023-05-09T07:47:25;6.85;;;5.15;;
68140;SDS011;54941;52.220;104.306;2023-05-09T07:49:52;7.68;;;5.45;;
68140;SDS011;54941;52.220;104.306;2023-05-09T07:52:18;7.97;;;5.30;;
68140;SDS011;54941;52.220;104.306;2023-05-09T07:54:44;8.38;;;5.97;;
68140;SDS011;54941;52.220;104.306;2023-05-09T07:57:11;9.25;;;5.60;;
68140;SDS011;54941;52.220;104.306;2023-05-09T07:59:37;9.02;;;5.68;;
68140;SDS011;54941;52.220;104.306;2023-05-09T08:02:03;7.55;;;5.78;;
68140;SDS011;54941;52.220;104.306;2023-05-09T08:04:31;9.00;;;6.10;;
68140;SDS011;54941;52.220;104.306;2023-05-09T08:06:57;12.95;;;6.07;;
68140;SDS011;54941;52.220;104.306;2023-05-09T08:09:23;8.07;;;5.88;;
68140;SDS011;54941;52.220;104.306;2023-05-09T08:11:50;8.73;;;5.78;;
68140;SDS011;54941;52.220;104.306;2023-05-09T08:14:16;9.68;;;6.55;;
68140;SDS011;54941;52.220;104.306;2023-05-09T08:16:42;8.80;;;6.10;;
68140;SDS011;54941;52.220;104.306;2023-05-09T08:19:09;9.30;;;6.18;;
68140;SDS011;54941;52.220;104.306;2023-05-09T08:21:36;10.73;;;6.07;;
68140;SDS011;54941;52.220;104.306;2023-05-09T08:24:03;11.38;;;5.80;;
68140;SDS011;54941;52.220;104.306;2023-05-09T08:26:29;8.57;;;5.88;;
68140;SDS011;54941;52.220;104.306;2023-05-09T08:28:55;7.85;;;5.20;;
68140;SDS011;54941;52.220;104.306;2023-05-09T08:31:22;7.82;;;5.70;;
68140;SDS011;54941;52.220;104.306;2023-05-09T08:33:48;10.30;;;6.82;;
68140;SDS011;54941;52.220;104.306;2023-05-09T08:36:14;10.15;;;7.57;;
68140;SDS011;54941;52.220;104.306;2023-05-09T08:38:42;10.63;;;6.60;;
68140;SDS011;54941;52.220;104.306;2023-05-09T08:41:08;8.60;;;6.22;;
68140;SDS011;54941;52.220;104.306;2023-05-09T08:43:35;8.95;;;6.10;;
68140;SDS011;54941;52.220;104.306;2023-05-09T08:46:04;7.25;;;5.75;;
68140;SDS011;54941;52.220;104.306;2023-05-09T08:48:32;9.32;;;6.00;;
68140;SDS011;54941;52.220;104.306;2023-05-09T08:51:00;10.70;;;6.18;;
68140;SDS011;54941;52.220;104.306;2023-05-09T08:53:26;11.63;;;6.47;;
68140;SDS011;54941;52.220;104.306;2023-05-09T08:55:54;13.18;;;6.43;;
68140;SDS011;54941;52.220;104.306;2023-05-09T08:58:22;8.18;;;5.53;;
68140;SDS011;54941;52.220;104.306;2023-05-09T09:00:49;10.25;;;6.07;;
68140;SDS011;54941;52.220;104.306;2023-05-09T09:03:15;10.05;;;5.95;;
68140;SDS011;54941;52.220;104.306;2023-05-09T09:05:42;10.25;;;5.95;;
68140;SDS011;54941;52.220;104.306;2023-05-09T09:08:11;8.68;;;5.60;;
68140;SDS011;54941;52.220;104.306;2023-05-09T09:10:39;12.55;;;6.53;;
68140;SDS011;54941;52.220;104.306;2023-05-09T09:13:07;11.20;;;5.80;;
68140;SDS011;54941;52.220;104.306;2023-05-09T09:15:37;9.10;;;5.88;;
68140;SDS011;54941;52.220;104.306;2023-05-09T09:18:05;10.38;;;5.95;;
68140;SDS011;54941;52.220;104.306;2023-05-09T09:20:33;11.30;;;6.10;;
68140;SDS011;54941;52.220;104.306;2023-05-09T09:23:02;11.73;;;6.13;;
68140;SDS011;54941;52.220;104.306;2023-05-09T09:25:32;11.68;;;6.03;;
68140;SDS011;54941;52.220;104.306;2023-05-09T09:27:59;9.20;;;6.05;;
68140;SDS011;54941;52.220;104.306;2023-05-09T09:30:27;9.75;;;5.90;;
68140;SDS011;54941;52.220;104.306;2023-05-09T09:32:53;8.70;;;6.10;;
68140;SDS011;54941;52.220;104.306;2023-05-09T09:35:19;9.57;;;6.10;;
68140;SDS011;54941;52.220;104.306;2023-05-09T09:37:46;9.80;;;6.50;;
68140;SDS011;54941;52.220;104.306;2023-05-09T09:40:12;9.75;;;6.75;;
68140;SDS011;54941;52.220;104.306;2023-05-09T09:42:39;8.15;;;6.18;;
68140;SDS011;54941;52.220;104.306;2023-05-09T09:45:08;11.88;;;6.15;;
68140;SDS011;54941;52.220;104.306;2023-05-09T09:47:37;8.93;;;6.28;;
68140;SDS011;54941;52.220;104.306;2023-05-09T09:50:12;10.52;;;6.40;;
68140;SDS011;54941;52.220;104.306;2023-05-09T09:52:43;10.80;;;6.63;;
68140;SDS011;54941;52.220;104.306;2023-05-09T09:55:14;11.18;;;7.10;;
68140;SDS011;54941;52.220;104.306;2023-05-09T09:57:41;10.35;;;6.75;;
68140;SDS011;54941;52.220;104.306;2023-05-09T10:00:07;12.35;;;6.60;;
68140;SDS011;54941;52.220;104.306;2023-05-09T10:02:34;11.25;;;6.30;;
68140;SDS011;54941;52.220;104.306;2023-05-09T10:05:12;13.48;;;5.80;;
68140;SDS011;54941;52.220;104.306;2023-05-09T10:07:43;11.68;;;6.28;;
68140;SDS011;54941;52.220;104.306;2023-05-09T10:10:10;10.10;;;5.90;;
68140;SDS011;54941;52.220;104.306;2023-05-09T10:12:36;9.90;;;5.40;;
68140;SDS011;54941;52.220;104.306;2023-05-09T10:15:04;20.75;;;6.50;;
68140;SDS011;54941;52.220;104.306;2023-05-09T10:17:33;30.48;;;7.47;;
68140;SDS011;54941;52.220;104.306;2023-05-09T10:20:01;12.35;;;5.93;;
68140;SDS011;54941;52.220;104.306;2023-05-09T10:22:31;9.18;;;5.90;;
68140;SDS011;54941;52.220;104.306;2023-05-09T10:25:01;10.27;;;6.05;;
68140;SDS011;54941;52.220;104.306;2023-05-09T10:27:30;10.82;;;6.25;;
68140;SDS011;54941;52.220;104.306;2023-05-09T10:30:01;10.20;;;6.13;;
68140;SDS011;54941;52.220;104.306;2023-05-09T10:32:37;11.13;;;6.75;;
68140;SDS011;54941;52.220;104.306;2023-05-09T10:35:09;11.93;;;6.72;;
68140;SDS011;54941;52.220;104.306;2023-05-09T10:37:37;10.27;;;7.22;;
68140;SDS011;54941;52.220;104.306;2023-05-09T10:40:04;10.35;;;6.38;;
68140;SDS011;54941;52.220;104.306;2023-05-09T10:42:32;9.65;;;6.18;;
68140;SDS011;54941;52.220;104.306;2023-05-09T10:44:58;11.02;;;6.30;;
68140;SDS011;54941;52.220;104.306;2023-05-09T10:47:26;11.10;;;6.43;;
68140;SDS011;54941;52.220;104.306;2023-05-09T10:49:53;13.93;;;6.45;;
68140;SDS011;54941;52.220;104.306;2023-05-09T10:52:20;11.65;;;6.65;;
68140;SDS011;54941;52.220;104.306;2023-05-09T10:54:51;10.63;;;6.20;;
68140;SDS011;54941;52.220;104.306;2023-05-09T10:57:24;9.80;;;6.15;;
68140;SDS011;54941;52.220;104.306;2023-05-09T10:59:51;12.82;;;6.60;;
68140;SDS011;54941;52.220;104.306;2023-05-09T11:02:18;10.27;;;6.35;;
68140;SDS011;54941;52.220;104.306;2023-05-09T11:04:45;9.73;;;6.00;;
68140;SDS011;54941;52.220;104.306;2023-05-09T11:07:21;9.57;;;6.07;;
68140;SDS011;54941;52.220;104.306;2023-05-09T11:09:51;9.73;;;6.13;;
68140;SDS011;54941;52.220;104.306;2023-05-09T11:12:18;12.48;;;6.63;;
68140;SDS011;54941;52.220;104.306;2023-05-09T11:14:46;13.77;;;7.28;;
68140;SDS011;54941;52.220;104.306;2023-05-09T11:17:27;10.60;;;6.55;;
68140;SDS011;54941;52.220;104.306;2023-05-09T11:20:00;10.95;;;7.05;;
68140;SDS011;54941;52.220;104.306;2023-05-09T11:22:38;10.88;;;7.32;;
68140;SDS011;54941;52.220;104.306;2023-05-09T11:25:08;14.20;;;6.80;;
68140;SDS011;54941;52.220;104.306;2023-05-09T11:27:37;17.50;;;6.95;;
68140;SDS011;54941;52.220;104.306;2023-05-09T11:30:06;10.90;;;6.90;;
68140;SDS011;54941;52.220;104.306;2023-05-09T11:32:39;10.27;;;6.68;;
68140;SDS011;54941;52.220;104.306;2023-05-09T11:35:07;12.88;;;7.00;;
68140;SDS011;54941;52.220;104.306;2023-05-09T11:37:38;9.63;;;6.65;;
68140;SDS011;54941;52.220;104.306;2023-05-09T11:40:11;13.57;;;6.82;;
68140;SDS011;54941;52.220;104.306;2023-05-09T11:42:40;12.95;;;6.25;;
68140;SDS011;54941;52.220;104.306;2023-05-09T11:47:34;13.05;;;6.80;;
68140;SDS011;54941;52.220;104.306;2023-05-09T11:50:01;13.00;;;6.15;;
68140;SDS011;54941;52.220;104.306;2023-05-09T11:52:30;12.50;;;6.93;;
68140;SDS011;54941;52.220;104.306;2023-05-09T11:54:57;11.07;;;6.90;;
68140;SDS011;54941;52.220;104.306;2023-05-09T11:57:25;10.15;;;6.65;;
68140;SDS011;54941;52.220;104.306;2023-05-09T11:59:52;11.70;;;6.70;;
68140;SDS011;54941;52.220;104.306;2023-05-09T12:02:19;13.00;;;6.68;;
68140;SDS011;54941;52.220;104.306;2023-05-09T12:04:46;12.90;;;6.60;;
68140;SDS011;54941;52.220;104.306;2023-05-09T12:07:13;12.40;;;6.82;;
68140;SDS011;54941;52.220;104.306;2023-05-09T12:09:39;10.23;;;6.78;;
68140;SDS011;54941;52.220;104.306;2023-05-09T12:12:08;12.20;;;7.30;;
68140;SDS011;54941;52.220;104.306;2023-05-09T12:14:37;11.15;;;7.30;;
68140;SDS011;54941;52.220;104.306;2023-05-09T12:17:04;14.43;;;7.28;;
68140;SDS011;54941;52.220;104.306;2023-05-09T12:19:30;12.73;;;7.25;;
68140;SDS011;54941;52.220;104.306;2023-05-09T12:21:57;12.07;;;6.75;;
68140;SDS011;54941;52.220;104.306;2023-05-09T12:24:24;11.57;;;7.15;;
68140;SDS011;54941;52.220;104.306;2023-05-09T12:26:51;12.05;;;7.25;;
68140;SDS011;54941;52.220;104.306;2023-05-09T12:29:17;12.55;;;6.85;;
68140;SDS011;54941;52.220;104.306;2023-05-09T12:31:46;14.13;;;7.80;;
68140;SDS011;54941;52.220;104.306;2023-05-09T12:34:14;13.32;;;7.53;;
68140;SDS011;54941;52.220;104.306;2023-05-09T12:36:42;12.70;;;7.03;;
68140;SDS011;54941;52.220;104.306;2023-05-09T12:39:09;13.82;;;6.38;;
68140;SDS011;54941;52.220;104.306;2023-05-09T12:41:41;12.80;;;6.78;;
68140;SDS011;54941;52.220;104.306;2023-05-09T12:44:08;13.60;;;7.03;;
68140;SDS011;54941;52.220;104.306;2023-05-09T12:46:34;13.60;;;6.68;;
68140;SDS011;54941;52.220;104.306;2023-05-09T12:49:02;13.10;;;7.15;;
68140;SDS011;54941;52.220;104.306;2023-05-09T12:51:28;12.55;;;7.32;;
68140;SDS011;54941;52.220;104.306;2023-05-09T12:53:55;13.73;;;7.22;;
68140;SDS011;54941;52.220;104.306;2023-05-09T12:56:32;15.80;;;7.97;;
68140;SDS011;54941;52.220;104.306;2023-05-09T12:58:58;14.40;;;7.38;;
68140;SDS011;54941;52.220;104.306;2023-05-09T13:01:26;15.18;;;7.20;;
68140;SDS011;54941;52.220;104.306;2023-05-09T13:03:58;13.23;;;7.20;;
68140;SDS011;54941;52.220;104.306;2023-05-09T13:06:28;13.55;;;7.60;;
68140;SDS011;54941;52.220;104.306;2023-05-09T13:08:57;16.60;;;7.43;;
68140;SDS011;54941;52.220;104.306;2023-05-09T13:11:25;12.88;;;6.82;;
68140;SDS011;54941;52.220;104.306;2023-05-09T13:13:52;11.77;;;6.72;;
68140;SDS011;54941;52.220;104.306;2023-05-09T13:16:19;13.13;;;6.93;;
68140;SDS011;54941;52.220;104.306;2023-05-09T13:18:45;14.45;;;7.47;;
68140;SDS011;54941;52.220;104.306;2023-05-09T13:21:11;11.07;;;6.70;;
68140;SDS011;54941;52.220;104.306;2023-05-09T13:23:39;13.48;;;7.07;;
68140;SDS011;54941;52.220;104.306;2023-05-09T13:26:05;18.45;;;9.23;;
68140;SDS011;54941;52.220;104.306;2023-05-09T13:28:32;13.48;;;7.57;;
68140;SDS011;54941;52.220;104.306;2023-05-09T13:31:01;21.60;;;10.10;;
68140;SDS011;54941;52.220;104.306;2023-05-09T13:33:27;19.45;;;9.05;;
68140;SDS011;54941;52.220;104.306;2023-05-09T13:35:53;14.60;;;7.78;;
68140;SDS011;54941;52.220;104.306;2023-05-09T13:38:20;12.75;;;6.57;;
68140;SDS011;54941;52.220;104.306;2023-05-09T13:40:48;15.38;;;7.68;;
68140;SDS011;54941;52.220;104.306;2023-05-09T13:43:14;25.80;;;7.85;;
68140;SDS011;54941;52.220;104.306;2023-05-09T13:45:40;24.15;;;8.02;;
68140;SDS011;54941;52.220;104.306;2023-05-09T13:48:09;13.25;;;6.93;;
68140;SDS011;54941;52.220;104.306;2023-05-09T13:50:35;12.02;;;7.45;;
68140;SDS011;54941;52.220;104.306;2023-05-09T13:53:02;14.40;;;7.57;;
68140;SDS011;54941;52.220;104.306;2023-05-09T13:55:28;12.48;;;7.35;;
68140;SDS011;54941;52.220;104.306;2023-05-09T13:57:56;12.00;;;7.38;;
68140;SDS011;54941;52.220;104.306;2023-05-09T14:00:22;13.65;;;7.70;;
68140;SDS011;54941;52.220;104.306;2023-05-09T14:02:49;13.43;;;7.38;;
68140;SDS011;54941;52.220;104.306;2023-05-09T14:05:16;11.38;;;6.95;;
68140;SDS011;54941;52.220;104.306;2023-05-09T14:07:43;13.98;;;7.57;;
68140;SDS011;54941;52.220;104.306;2023-05-09T14:10:09;14.18;;;7.45;;
68140;SDS011;54941;52.220;104.306;2023-05-09T14:12:36;14.77;;;7.88;;
68140;SDS011;54941;52.220;104.306;2023-05-09T14:15:05;15.10;;;7.78;;
68140;SDS011;54941;52.220;104.306;2023-05-09T14:17:32;13.15;;;7.40;;
68140;SDS011;54941;52.220;104.306;2023-05-09T14:19:59;13.93;;;7.55;;
68140;SDS011;54941;52.220;104.306;2023-05-09T14:22:25;13.85;;;7.78;;